Time;durP1;ratioP1;P1;durP2;ratioP2;P2;SDS_P1;SDS_P2;PMS_P1;PMS_P2;Temp;Humidity;BMP_temperature;BMP_pressure;BME280_temperature;BME280_humidity;BME280_pressure;Samples;Min_cycle;Max_cycle;Signal;HPM_P1;HPM_P2
2021/12/22 00:00:20;;;;;;;11.60;8.57;;;-3.80;99.90;;;;;;5086158;28;20296;-85
2021/12/22 00:02:46;;;;;;;14.60;7.07;;;-3.70;99.90;;;;;;5072408;28;20451;-85
2021/12/22 00:05:19;;;;;;;11.83;9.03;;;-3.80;99.90;;;;;;5072377;28;20481;-85
2021/12/22 00:07:46;;;;;;;14.73;8.80;;;-3.80;99.90;;;;;;5073550;28;20416;-86
2021/12/22 00:10:12;;;;;;;13.20;9.30;;;-3.40;99.90;;;;;;5071945;28;20831;-85
2021/12/22 00:12:37;;;;;;;12.07;8.90;;;-3.80;99.90;;;;;;5073671;28;20832;-86
2021/12/22 00:15:04;;;;;;;8.00;6.40;;;-3.90;99.90;;;;;;5073472;28;20443;-86
2021/12/22 00:17:30;;;;;;;8.77;7.23;;;-3.90;99.90;;;;;;5073473;28;20174;-86
2021/12/22 00:19:56;;;;;;;6.43;5.83;;;-3.90;99.90;;;;;;5094702;28;20568;-86
2021/12/22 00:22:22;;;;;;;11.67;8.30;;;-4.00;99.90;;;;;;5112091;28;20670;-87
2021/12/22 00:24:48;;;;;;;8.17;6.00;;;-4.00;99.90;;;;;;5129310;27;20419;-86
2021/12/22 00:27:13;;;;;;;11.73;7.27;;;-4.00;99.90;;;;;;5113811;28;20685;-87
2021/12/22 00:29:39;;;;;;;12.37;9.50;;;-4.00;99.90;;;;;;5113785;28;20300;-86
2021/12/22 00:32:10;;;;;;;7.97;6.63;;;-4.00;99.90;;;;;;5113551;28;20170;-87
2021/12/22 00:34:49;;;;;;;14.70;8.33;;;-4.00;99.90;;;;;;5113754;28;20172;-87
2021/12/22 00:37:17;;;;;;;10.50;6.53;;;-4.10;99.90;;;;;;5095349;28;20800;-87
2021/12/22 00:39:43;;;;;;;7.80;5.17;;;-4.10;99.90;;;;;;5092540;28;20977;-87
2021/12/22 00:42:11;;;;;;;7.13;6.43;;;-4.10;99.90;;;;;;5093272;28;20413;-87
2021/12/22 00:44:37;;;;;;;7.57;6.43;;;-4.20;99.90;;;;;;5093091;28;20422;-86
2021/12/22 00:47:04;;;;;;;17.53;7.83;;;-4.10;99.90;;;;;;5093146;28;20460;-87
2021/12/22 00:49:29;;;;;;;10.00;8.40;;;-4.20;99.90;;;;;;5091808;28;20931;-88
2021/12/22 00:51:55;;;;;;;13.77;7.50;;;-4.20;99.90;;;;;;5091257;28;20428;-87
2021/12/22 00:54:21;;;;;;;11.30;8.40;;;-4.20;99.90;;;;;;5092641;28;20840;-87
2021/12/22 00:56:47;;;;;;;10.90;7.37;;;-4.20;99.90;;;;;;5092446;28;20200;-87
2021/12/22 00:59:12;;;;;;;11.13;9.90;;;-4.30;99.90;;;;;;5091084;28;20823;-88
2021/12/22 01:01:38;;;;;;;8.17;5.87;;;-4.30;99.90;;;;;;5092196;28;20227;-89
2021/12/22 01:04:04;;;;;;;7.13;6.27;;;-4.30;99.90;;;;;;5092733;28;20544;-87
2021/12/22 01:06:29;;;;;;;11.23;7.57;;;-4.30;99.90;;;;;;5089743;28;20538;-88
2021/12/22 01:08:55;;;;;;;10.70;8.50;;;-4.30;99.90;;;;;;5090750;28;20506;-87
2021/12/22 01:11:21;;;;;;;10.63;6.70;;;-4.30;99.90;;;;;;5091085;28;20632;-88
2021/12/22 01:13:46;;;;;;;7.53;6.40;;;-4.30;99.90;;;;;;5089589;28;20184;-87
2021/12/22 01:16:12;;;;;;;9.10;7.80;;;-4.30;99.90;;;;;;5097447;28;20176;-87
2021/12/22 01:18:38;;;;;;;7.60;6.83;;;-3.70;99.90;;;;;;5091785;28;20672;-87
2021/12/22 01:21:18;;;;;;;8.57;7.20;;;-4.40;99.90;;;;;;5093306;28;20173;-87
2021/12/22 01:26:29;;;;;;;8.07;6.83;;;-4.40;99.90;;;;;;5093362;28;20942;-87
2021/12/22 01:28:55;;;;;;;10.77;7.43;;;-4.50;99.90;;;;;;5091856;28;20419;-87
2021/12/22 01:31:21;;;;;;;10.23;7.13;;;-4.50;99.90;;;;;;5092210;28;20883;-88
2021/12/22 01:33:47;;;;;;;8.53;6.40;;;-4.50;99.90;;;;;;5092058;28;20493;-88
2021/12/22 01:36:12;;;;;;;9.43;7.30;;;-4.50;99.90;;;;;;5093098;28;20249;-86
2021/12/22 01:38:38;;;;;;;9.03;8.13;;;-4.60;99.90;;;;;;5090994;28;20226;-86
2021/12/22 01:41:04;;;;;;;12.50;9.00;;;-4.50;99.90;;;;;;5091789;28;20176;-87
2021/12/22 01:43:29;;;;;;;10.27;7.20;;;-4.50;99.90;;;;;;5091608;28;20168;-86
2021/12/22 01:49:11;;;;;;;10.87;6.87;;;-4.60;99.90;;;;;;5093059;28;20180;-87
2021/12/22 01:51:55;;;;;;;7.80;6.57;;;-4.60;99.90;;;;;;5091570;28;20418;-87
2021/12/22 01:54:21;;;;;;;8.20;6.20;;;-4.60;99.90;;;;;;5091194;28;20937;-87
2021/12/22 01:56:52;;;;;;;12.63;8.40;;;-4.70;99.90;;;;;;5091372;28;21003;-87
2021/12/22 01:59:20;;;;;;;8.50;7.60;;;-4.60;99.90;;;;;;5092636;28;20820;-87
2021/12/22 02:01:47;;;;;;;11.03;6.83;;;-4.60;99.90;;;;;;5091865;28;20544;-87
2021/12/22 02:04:13;;;;;;;10.83;8.40;;;-4.70;99.90;;;;;;5094044;28;20430;-88
2021/12/22 02:06:44;;;;;;;10.17;7.57;;;-4.70;99.90;;;;;;5095410;28;20424;-86
2021/12/22 02:09:12;;;;;;;7.77;6.93;;;-4.70;99.90;;;;;;5095901;28;20470;-87
2021/12/22 02:11:38;;;;;;;9.97;8.50;;;-4.80;99.90;;;;;;5095146;28;20418;-88
2021/12/22 02:14:06;;;;;;;11.20;7.40;;;-4.70;99.90;;;;;;5095308;28;20426;-87
2021/12/22 02:16:36;;;;;;;8.77;7.97;;;-4.70;99.90;;;;;;5095179;28;20422;-86
2021/12/22 02:19:05;;;;;;;8.60;6.73;;;-4.70;99.90;;;;;;5096154;28;20466;-86
2021/12/22 02:21:36;;;;;;;8.53;5.83;;;-4.70;99.90;;;;;;5094838;28;20454;-85
2021/12/22 02:24:02;;;;;;;6.87;6.10;;;-4.50;99.90;;;;;;5094521;28;20407;-85
2021/12/22 02:26:40;;;;;;;8.40;6.10;;;-3.60;99.90;;;;;;5094570;28;20430;-85
2021/12/22 02:29:17;;;;;;;6.33;4.83;;;-4.80;99.90;;;;;;5094694;28;20645;-85
2021/12/22 02:31:47;;;;;;;8.90;6.90;;;-4.80;99.90;;;;;;5095643;28;20920;-85
2021/12/22 02:34:16;;;;;;;7.80;6.90;;;-4.70;99.90;;;;;;5094428;28;20410;-85
2021/12/22 02:36:43;;;;;;;8.77;6.67;;;-4.80;99.90;;;;;;5079804;28;20456;-85
2021/12/22 02:39:10;;;;;;;12.80;9.17;;;-4.80;99.90;;;;;;5084197;28;20536;-84
2021/12/22 02:41:39;;;;;;;6.30;5.70;;;-4.80;99.90;;;;;;5094521;28;20456;-85
2021/12/22 02:44:09;;;;;;;11.57;8.40;;;-4.80;99.90;;;;;;5095499;28;20415;-84
2021/12/22 02:46:36;;;;;;;12.57;6.97;;;-2.80;99.90;;;;;;5094311;28;20930;-85
2021/12/22 02:49:07;;;;;;;9.50;7.47;;;-5.00;99.90;;;;;;5095387;28;20422;-84
2021/12/22 02:51:33;;;;;;;13.87;7.83;;;-4.80;99.90;;;;;;5083066;28;20422;-85
2021/12/22 03:06:58;;;;;;;9.07;5.83;;;-4.90;99.90;;;;;;5080841;28;20454;-87
2021/12/22 03:09:24;;;;;;;6.83;5.37;;;-4.90;99.90;;;;;;5072838;28;20490;-87
2021/12/22 03:11:51;;;;;;;8.40;7.30;;;-5.00;99.90;;;;;;5074273;28;20972;-87
2021/12/22 03:14:19;;;;;;;10.60;6.67;;;-4.90;99.90;;;;;;5074511;28;20415;-86
2021/12/22 03:16:45;;;;;;;5.93;5.33;;;-4.90;99.90;;;;;;5074828;28;20410;-88
2021/12/22 03:19:18;;;;;;;8.83;5.80;;;-5.00;99.90;;;;;;5073811;28;20504;-88
2021/12/22 03:21:45;;;;;;;8.23;6.00;;;-5.00;99.90;;;;;;5075187;28;20419;-88
2021/12/22 03:24:12;;;;;;;12.47;6.90;;;-5.00;99.90;;;;;;5074830;28;20410;-88
2021/12/22 03:26:42;;;;;;;8.77;7.57;;;-5.10;99.90;;;;;;5074069;28;20775;-88
2021/12/22 03:29:09;;;;;;;7.53;6.80;;;-5.10;99.90;;;;;;5073928;28;20451;-88
2021/12/22 03:31:36;;;;;;;6.10;5.50;;;-5.10;99.90;;;;;;5073764;28;20423;-86
2021/12/22 03:34:02;;;;;;;9.90;7.20;;;-5.10;99.90;;;;;;5073346;28;20778;-87
2021/12/22 03:36:28;;;;;;;8.43;5.53;;;-5.10;99.90;;;;;;5072992;28;20429;-87
2021/12/22 03:38:53;;;;;;;8.27;4.83;;;-5.10;99.90;;;;;;5073884;28;20579;-87
2021/12/22 03:41:19;;;;;;;13.40;5.87;;;-5.10;99.90;;;;;;5073028;28;20419;-86
2021/12/22 03:43:45;;;;;;;8.70;7.27;;;-5.10;99.90;;;;;;5074211;28;20554;-86
2021/12/22 03:46:10;;;;;;;6.90;5.80;;;-5.10;99.90;;;;;;5073022;28;20179;-87
2021/12/22 03:48:36;;;;;;;13.27;7.10;;;-5.20;99.90;;;;;;5074098;28;20248;-86
2021/12/22 03:51:02;;;;;;;10.23;5.63;;;-5.20;99.90;;;;;;5077580;28;20212;-86
2021/12/22 03:53:28;;;;;;;7.13;5.40;;;-5.20;99.90;;;;;;5092728;28;20196;-87
2021/12/22 03:55:53;;;;;;;6.90;6.23;;;-5.20;99.90;;;;;;5092999;28;20906;-87
2021/12/22 03:58:20;;;;;;;6.97;6.27;;;-5.20;99.90;;;;;;5094353;28;20259;-88
2021/12/22 04:00:46;;;;;;;8.20;6.63;;;-5.20;99.90;;;;;;5093960;28;20231;-88
2021/12/22 04:03:17;;;;;;;10.00;6.20;;;-5.20;99.90;;;;;;5093866;28;20420;-89
2021/12/22 04:05:44;;;;;;;13.17;7.23;;;-5.20;99.90;;;;;;5093880;28;20505;-88
2021/12/22 04:08:11;;;;;;;5.00;4.40;;;-5.20;99.90;;;;;;5093293;28;20418;-88
2021/12/22 04:10:37;;;;;;;9.23;6.50;;;-5.20;99.90;;;;;;5093463;28;20418;-88
2021/12/22 04:13:04;;;;;;;8.47;6.10;;;-5.20;99.90;;;;;;5093337;28;20423;-88
2021/12/22 04:15:29;;;;;;;10.57;9.47;;;-5.20;99.90;;;;;;5093047;28;20427;-88
2021/12/22 04:17:55;;;;;;;11.97;7.73;;;-5.20;99.90;;;;;;5094698;28;20961;-88
2021/12/22 04:20:22;;;;;;;13.10;7.30;;;-5.20;99.90;;;;;;5093002;28;20199;-88
2021/12/22 04:22:47;;;;;;;8.27;5.17;;;-5.30;99.90;;;;;;5092645;28;20986;-88
2021/12/22 04:25:20;;;;;;;14.97;6.67;;;-5.30;99.90;;;;;;5094052;28;20493;-87
2021/12/22 04:27:51;;;;;;;6.97;6.37;;;-5.30;99.90;;;;;;5092624;28;20176;-88
2021/12/22 04:30:17;;;;;;;7.30;6.53;;;-5.30;99.90;;;;;;5094352;28;20925;-88
2021/12/22 04:32:43;;;;;;;8.20;6.47;;;-5.30;99.90;;;;;;5093974;28;20414;-88
2021/12/22 04:35:08;;;;;;;10.77;5.57;;;-5.30;99.90;;;;;;5094214;28;20414;-87
2021/12/22 04:37:34;;;;;;;8.07;6.43;;;-5.40;99.90;;;;;;5093336;28;20257;-88
2021/12/22 04:40:00;;;;;;;12.63;7.53;;;-5.40;99.90;;;;;;5092521;28;20212;-87
2021/12/22 04:42:25;;;;;;;13.27;6.23;;;-5.30;99.90;;;;;;5092671;28;20171;-88
2021/12/22 04:44:53;;;;;;;8.30;5.77;;;-5.30;99.90;;;;;;5093979;28;20188;-86
2021/12/22 04:47:20;;;;;;;7.77;6.70;;;-5.30;99.90;;;;;;5092245;28;20195;-87
2021/12/22 04:49:47;;;;;;;7.90;5.93;;;-5.40;99.90;;;;;;5093544;28;20823;-87
2021/12/22 04:52:17;;;;;;;11.80;6.80;;;-5.40;99.90;;;;;;5093384;28;20418;-86
2021/12/22 04:55:02;;;;;;;8.93;6.43;;;-5.50;99.90;;;;;;5093247;28;20422;-87
2021/12/22 04:57:28;;;;;;;11.37;7.07;;;-5.50;99.90;;;;;;5092069;28;20418;-87
2021/12/22 04:59:54;;;;;;;7.40;5.93;;;-5.50;99.90;;;;;;5092057;28;20469;-86
2021/12/22 05:02:20;;;;;;;9.23;6.77;;;-5.50;99.90;;;;;;5092456;28;20421;-86
2021/12/22 05:04:45;;;;;;;13.30;7.27;;;-5.50;99.90;;;;;;5092695;28;20180;-86
2021/12/22 05:07:11;;;;;;;12.57;9.10;;;-5.60;99.90;;;;;;5092171;28;20172;-87
2021/12/22 05:09:36;;;;;;;11.40;6.50;;;-5.50;99.90;;;;;;5092841;28;20180;-87
2021/12/22 05:12:03;;;;;;;7.83;6.20;;;-5.50;99.90;;;;;;5093418;28;20526;-87
2021/12/22 05:14:28;;;;;;;11.77;6.90;;;-5.50;99.90;;;;;;5093298;28;20564;-87
2021/12/22 05:16:59;;;;;;;8.87;7.03;;;-5.50;99.90;;;;;;5093407;28;20401;-87
2021/12/22 05:19:26;;;;;;;8.70;7.23;;;-5.60;99.90;;;;;;5091773;28;20241;-86
2021/12/22 05:21:52;;;;;;;14.70;7.77;;;-5.60;99.90;;;;;;5091735;28;20414;-85
2021/12/22 05:24:18;;;;;;;10.17;6.87;;;-5.60;99.90;;;;;;5091813;28;20836;-85
2021/12/22 05:26:43;;;;;;;9.17;5.10;;;-5.60;99.90;;;;;;5091655;28;20446;-86
2021/12/22 05:29:09;;;;;;;14.80;7.60;;;-5.60;99.90;;;;;;5091693;28;20537;-86
2021/12/22 05:31:35;;;;;;;8.80;6.50;;;-5.60;99.90;;;;;;5091854;28;20350;-85
2021/12/22 05:34:00;;;;;;;13.10;7.90;;;-5.60;99.90;;;;;;5092747;28;20165;-85
2021/12/22 05:36:26;;;;;;;8.97;6.17;;;-5.60;99.90;;;;;;5092846;28;20164;-85
2021/12/22 05:38:52;;;;;;;9.37;7.43;;;-5.70;99.90;;;;;;5094758;28;20315;-87
2021/12/22 05:41:18;;;;;;;7.43;6.67;;;-5.70;99.90;;;;;;5097127;28;20612;-87
2021/12/22 05:43:44;;;;;;;11.73;8.70;;;-5.80;99.90;;;;;;5097254;28;20799;-87
2021/12/22 05:46:10;;;;;;;8.43;6.43;;;-5.70;99.90;;;;;;5096082;28;20172;-86
2021/12/22 05:48:35;;;;;;;7.70;5.87;;;-5.70;99.90;;;;;;5097275;28;20414;-87
2021/12/22 05:51:02;;;;;;;14.17;8.10;;;-5.80;99.90;;;;;;5095930;28;20240;-87
2021/12/22 05:53:29;;;;;;;9.90;7.20;;;-5.70;99.90;;;;;;5096781;28;20202;-86
2021/12/22 05:55:56;;;;;;;14.07;9.63;;;-5.70;99.90;;;;;;5097125;28;20414;-87
2021/12/22 05:58:22;;;;;;;9.33;5.37;;;-5.70;99.90;;;;;;5095770;28;20454;-87
2021/12/22 06:00:48;;;;;;;12.70;8.70;;;-5.60;99.90;;;;;;5096657;28;20505;-87
2021/12/22 06:03:15;;;;;;;11.70;7.77;;;-5.60;99.90;;;;;;5096635;28;20441;-87
2021/12/22 06:05:41;;;;;;;12.83;5.73;;;-5.60;99.90;;;;;;5095548;28;20545;-87
2021/12/22 06:08:08;;;;;;;10.40;7.53;;;-5.50;99.90;;;;;;5096261;28;20421;-87
2021/12/22 06:10:34;;;;;;;11.43;7.47;;;-5.50;99.90;;;;;;5095482;28;20471;-87
2021/12/22 06:13:09;;;;;;;13.33;8.33;;;-5.40;99.90;;;;;;5096074;28;20454;-88
2021/12/22 06:15:37;;;;;;;8.93;5.40;;;-5.50;99.90;;;;;;5095750;28;20781;-87
2021/12/22 06:18:03;;;;;;;22.10;9.33;;;-5.30;99.90;;;;;;5095689;28;20419;-87
2021/12/22 06:20:31;;;;;;;20.90;10.67;;;-5.30;99.90;;;;;;5094935;28;20476;-89
2021/12/22 06:22:57;;;;;;;20.47;10.40;;;-5.30;99.90;;;;;;5094659;28;20459;-87
2021/12/22 06:25:24;;;;;;;16.30;9.50;;;-5.20;99.90;;;;;;5096329;28;20415;-87
2021/12/22 06:27:50;;;;;;;19.67;10.17;;;-5.20;99.90;;;;;;5096153;28;20813;-87
2021/12/22 06:30:16;;;;;;;11.43;6.77;;;-5.20;99.90;;;;;;5094993;28;20521;-88
2021/12/22 06:32:42;;;;;;;18.43;8.13;;;-5.10;99.90;;;;;;5094761;28;20415;-87
2021/12/22 06:35:08;;;;;;;11.60;7.93;;;-5.20;99.90;;;;;;5094557;28;20427;-87
2021/12/22 06:37:34;;;;;;;14.97;7.53;;;-5.20;99.90;;;;;;5094474;28;20480;-88
2021/12/22 06:40:00;;;;;;;18.87;8.57;;;-5.10;99.90;;;;;;5095051;28;21009;-88
2021/12/22 06:42:25;;;;;;;14.60;8.33;;;-5.10;99.90;;;;;;5094837;28;20422;-88
2021/12/22 06:44:51;;;;;;;12.73;6.37;;;-5.00;99.90;;;;;;5111320;28;20495;-86
2021/12/22 06:47:17;;;;;;;11.23;7.27;;;-5.10;99.90;;;;;;5095409;28;20172;-87
2021/12/22 06:49:43;;;;;;;14.47;9.00;;;-5.00;99.90;;;;;;5093461;28;20426;-86
2021/12/22 06:52:09;;;;;;;13.43;7.10;;;-5.00;99.90;;;;;;5095264;28;20753;-86
2021/12/22 06:54:35;;;;;;;19.87;10.83;;;-5.00;99.90;;;;;;5093840;28;20675;-86
2021/12/22 06:57:01;;;;;;;15.53;8.00;;;-4.90;99.90;;;;;;5094538;28;20172;-86
2021/12/22 06:59:26;;;;;;;16.13;10.83;;;-4.90;99.90;;;;;;5094154;28;20204;-86
2021/12/22 07:01:52;;;;;;;15.93;8.20;;;-4.90;99.90;;;;;;5094599;28;20571;-86
2021/12/22 07:04:18;;;;;;;8.93;7.50;;;-4.90;99.90;;;;;;5095783;28;20169;-86
2021/12/22 07:06:44;;;;;;;14.83;8.20;;;-4.90;99.90;;;;;;5095372;28;20169;-86
2021/12/22 07:09:10;;;;;;;15.97;9.07;;;-4.80;99.90;;;;;;5094403;28;20448;-85
2021/12/22 07:11:37;;;;;;;9.50;5.90;;;-4.80;99.90;;;;;;5098660;28;20429;-86
2021/12/22 07:14:06;;;;;;;18.60;10.17;;;-4.90;99.90;;;;;;5098476;28;20210;-86
2021/12/22 07:16:32;;;;;;;27.03;9.60;;;-4.80;99.90;;;;;;5097156;28;20422;-86
2021/12/22 07:18:57;;;;;;;21.60;8.73;;;-4.80;99.90;;;;;;5098436;28;20459;-85
2021/12/22 07:21:23;;;;;;;17.83;6.33;;;-4.80;99.90;;;;;;5099016;28;20230;-86
2021/12/22 07:23:49;;;;;;;17.53;10.50;;;-4.80;99.90;;;;;;5095743;28;20312;-85
2021/12/22 07:26:15;;;;;;;19.90;8.50;;;-4.80;99.90;;;;;;5094341;28;20430;-85
2021/12/22 07:28:43;;;;;;;16.00;8.20;;;-4.70;99.90;;;;;;5095087;28;20414;-85
2021/12/22 07:31:09;;;;;;;13.03;7.90;;;-4.70;99.90;;;;;;5093299;28;20218;-85
2021/12/22 07:33:34;;;;;;;19.80;8.87;;;-4.80;99.90;;;;;;5092999;28;20420;-84
2021/12/22 07:36:02;;;;;;;11.60;7.00;;;-4.70;99.90;;;;;;5092998;28;20785;-85
2021/12/22 07:38:40;;;;;;;17.80;11.60;;;-4.70;99.90;;;;;;5093534;28;20566;-84
2021/12/22 07:41:07;;;;;;;16.50;10.23;;;-4.70;99.90;;;;;;5092633;28;20457;-85
2021/12/22 07:43:35;;;;;;;14.03;8.90;;;-4.60;99.90;;;;;;5092295;28;20422;-84
2021/12/22 07:46:02;;;;;;;32.70;9.70;;;-4.60;99.90;;;;;;5093329;28;20495;-84
2021/12/22 07:48:28;;;;;;;19.00;7.60;;;-4.60;99.90;;;;;;5093888;28;20416;-86
2021/12/22 07:50:55;;;;;;;15.40;8.70;;;-4.60;99.90;;;;;;5092607;28;20431;-83
2021/12/22 07:53:21;;;;;;;15.97;8.40;;;-4.60;99.90;;;;;;5093611;28;20432;-84
2021/12/22 07:55:48;;;;;;;13.20;6.90;;;-4.60;99.90;;;;;;5092427;28;20513;-84
2021/12/22 07:58:14;;;;;;;19.43;8.20;;;-4.60;99.90;;;;;;5093632;28;20438;-85
2021/12/22 08:00:40;;;;;;;12.57;8.77;;;-4.50;99.90;;;;;;5092459;28;20870;-86
2021/12/22 08:03:05;;;;;;;15.97;8.40;;;-4.50;99.90;;;;;;5092681;28;20422;-86
2021/12/22 08:05:31;;;;;;;22.10;7.93;;;-4.50;99.90;;;;;;5092440;28;20867;-85
2021/12/22 08:07:59;;;;;;;9.60;8.17;;;-4.10;99.90;;;;;;5093408;28;20636;-86
2021/12/22 08:10:25;;;;;;;11.70;6.53;;;-4.40;99.90;;;;;;5093636;28;20471;-87
2021/12/22 08:12:51;;;;;;;13.63;8.30;;;-4.40;99.90;;;;;;5092921;28;20855;-87
2021/12/22 08:15:16;;;;;;;17.03;8.30;;;-4.30;99.90;;;;;;5096644;28;20208;-90
2021/12/22 08:17:43;;;;;;;23.87;8.30;;;-4.30;99.90;;;;;;5092798;28;20184;-86
2021/12/22 08:20:09;;;;;;;18.87;8.00;;;-4.30;99.90;;;;;;5093400;28;20208;-85
2021/12/22 08:22:35;;;;;;;12.80;6.50;;;-4.30;99.90;;;;;;5091716;28;20501;-85
2021/12/22 08:25:01;;;;;;;11.97;6.77;;;-4.30;99.90;;;;;;5093270;28;20510;-84
2021/12/22 08:27:26;;;;;;;11.80;6.90;;;-4.30;99.90;;;;;;5092865;28;20415;-84
2021/12/22 08:29:52;;;;;;;16.63;9.03;;;-4.20;99.90;;;;;;5091418;28;20476;-85
2021/12/22 08:32:18;;;;;;;12.70;6.93;;;-4.20;99.90;;;;;;5091381;28;20177;-84
2021/12/22 08:34:47;;;;;;;20.10;9.60;;;-4.20;99.90;;;;;;5092880;28;20435;-84
2021/12/22 08:39:58;;;;;;;14.27;7.93;;;-4.20;99.90;;;;;;5093209;28;20985;-84
2021/12/22 08:42:25;;;;;;;17.20;6.90;;;-4.20;99.90;;;;;;5092809;28;20462;-84
2021/12/22 08:44:51;;;;;;;19.70;7.20;;;-4.20;99.90;;;;;;5092511;28;20438;-84
2021/12/22 08:47:17;;;;;;;15.90;8.60;;;-4.10;99.90;;;;;;5092361;28;20423;-84
2021/12/22 08:49:45;;;;;;;16.17;8.33;;;-4.10;99.90;;;;;;5092651;28;20911;-85
2021/12/22 08:52:10;;;;;;;14.90;8.33;;;-3.90;99.90;;;;;;5091344;28;20922;-84
2021/12/22 08:54:37;;;;;;;13.57;5.70;;;-4.00;99.90;;;;;;5091134;28;20430;-84
2021/12/22 08:57:03;;;;;;;13.17;7.70;;;-4.00;99.90;;;;;;5092705;28;20623;-84
2021/12/22 08:59:29;;;;;;;15.27;7.27;;;-3.90;99.90;;;;;;5092801;28;20470;-84
2021/12/22 09:01:55;;;;;;;12.77;7.90;;;-3.90;99.90;;;;;;5092480;28;20448;-85
2021/12/22 09:04:21;;;;;;;13.00;7.40;;;-3.90;99.90;;;;;;5092768;28;20172;-84
2021/12/22 09:06:50;;;;;;;11.07;6.80;;;-3.80;99.90;;;;;;5091350;28;20496;-85
2021/12/22 09:09:17;;;;;;;17.73;8.53;;;-3.80;99.90;;;;;;5091514;28;20168;-84
2021/12/22 09:11:43;;;;;;;17.77;9.77;;;-3.70;99.90;;;;;;5092816;28;20409;-84
2021/12/22 09:14:10;;;;;;;17.33;10.03;;;-3.60;99.90;;;;;;5096875;28;20402;-84
2021/12/22 09:16:37;;;;;;;13.10;7.00;;;-3.60;99.90;;;;;;5095117;28;21022;-84
2021/12/22 09:19:04;;;;;;;15.07;8.97;;;-3.60;99.90;;;;;;5093776;28;20452;-84
2021/12/22 09:21:30;;;;;;;21.33;10.50;;;-3.50;99.90;;;;;;5104822;28;20429;-85
2021/12/22 09:23:57;;;;;;;18.93;8.33;;;-3.60;99.90;;;;;;5097692;28;20777;-85
2021/12/22 09:26:22;;;;;;;6.07;4.10;;;-3.60;99.90;;;;;;5095392;28;20489;-85
2021/12/22 09:28:49;;;;;;;10.97;7.90;;;-3.60;99.90;;;;;;5096818;28;20765;-85
2021/12/22 09:31:15;;;;;;;10.03;7.70;;;-3.50;99.90;;;;;;5098847;28;20670;-85
2021/12/22 09:33:40;;;;;;;16.63;8.70;;;-3.40;99.90;;;;;;5095710;28;20412;-85
2021/12/22 09:36:09;;;;;;;14.60;9.90;;;-3.40;99.90;;;;;;5096837;28;20490;-84
2021/12/22 09:38:35;;;;;;;15.70;7.80;;;-3.50;99.90;;;;;;5094193;28;20219;-86
2021/12/22 09:41:02;;;;;;;13.57;7.40;;;-3.40;99.90;;;;;;5085192;28;20446;-86
2021/12/22 09:43:28;;;;;;;13.53;8.60;;;-3.30;99.90;;;;;;5089889;28;20774;-86
2021/12/22 09:45:59;;;;;;;16.20;8.27;;;-3.30;99.90;;;;;;5091185;28;20447;-85
2021/12/22 09:49:19;;;;;;;10.77;6.40;;;-3.30;99.90;;;;;;5096155;28;20415;-94
2021/12/22 09:53:49;;;;;;;17.57;7.90;;;-3.10;99.90;;;;;;5112172;28;20423;-89
2021/12/22 09:56:19;;;;;;;16.53;6.37;;;-3.20;99.90;;;;;;5115866;28;20919;-87
2021/12/22 09:58:46;;;;;;;15.13;6.70;;;-3.20;99.90;;;;;;5116089;28;20453;-87
2021/12/22 10:01:13;;;;;;;15.03;8.67;;;-3.20;99.90;;;;;;5120495;28;20425;-87
2021/12/22 10:03:40;;;;;;;12.30;6.90;;;-3.00;99.90;;;;;;5086175;28;20837;-90
2021/12/22 10:06:06;;;;;;;12.90;8.10;;;-3.10;99.90;;;;;;5075955;28;20806;-86
2021/12/22 10:08:34;;;;;;;16.53;7.77;;;-2.90;99.90;;;;;;5074124;28;20515;-87
2021/12/22 10:11:04;;;;;;;15.87;9.07;;;-2.90;99.90;;;;;;5074046;28;20868;-87
2021/12/22 10:13:31;;;;;;;12.60;7.93;;;-2.90;99.90;;;;;;5073867;28;20426;-86
2021/12/22 10:15:58;;;;;;;18.73;9.40;;;-2.90;99.90;;;;;;5093358;28;20453;-86
2021/12/22 10:18:26;;;;;;;13.47;7.07;;;-3.00;99.90;;;;;;5105657;28;20453;-83
2021/12/22 10:21:06;;;;;;;14.57;8.23;;;-2.90;99.90;;;;;;5110096;28;20472;-83
2021/12/22 10:23:32;;;;;;;16.43;8.10;;;-2.90;99.90;;;;;;5111810;28;20448;-85
2021/12/22 10:25:59;;;;;;;14.20;7.37;;;-2.80;99.90;;;;;;5107816;28;20432;-86
2021/12/22 10:28:28;;;;;;;15.90;7.40;;;-2.80;99.90;;;;;;5098627;28;20178;-85
2021/12/22 10:30:58;;;;;;;19.30;9.33;;;-2.60;99.90;;;;;;5093632;28;20419;-85
2021/12/22 10:33:27;;;;;;;13.47;7.90;;;-2.50;99.90;;;;;;5090150;28;20485;-88
2021/12/22 10:35:58;;;;;;;14.73;7.77;;;-2.60;99.90;;;;;;5093079;28;20421;-87
2021/12/22 10:38:26;;;;;;;20.60;10.70;;;-2.60;99.90;;;;;;5094448;28;20975;-86
2021/12/22 10:40:57;;;;;;;16.50;9.97;;;-2.50;99.90;;;;;;5093985;28;20462;-84
2021/12/22 10:43:26;;;;;;;19.80;9.20;;;-2.50;99.90;;;;;;5093331;28;20420;-87
2021/12/22 10:45:55;;;;;;;14.43;8.10;;;-2.40;99.90;;;;;;5095365;28;20412;-85
2021/12/22 10:51:11;;;;;;;19.30;8.30;;;-2.30;99.90;;;;;;5101273;28;20775;-89
2021/12/22 10:53:45;;;;;;;12.97;7.40;;;-2.40;99.90;;;;;;5105150;28;20443;-88
2021/12/22 10:56:23;;;;;;;11.17;7.37;;;-2.40;99.90;;;;;;5098304;28;20412;-88
2021/12/22 10:59:04;;;;;;;12.97;7.10;;;-2.40;99.90;;;;;;5105972;28;20479;-89
2021/12/22 11:01:34;;;;;;;15.93;9.17;;;-2.30;99.90;;;;;;5120456;28;20450;-87
2021/12/22 11:04:04;;;;;;;14.27;8.00;;;-2.40;99.90;;;;;;5117154;28;20411;-89
2021/12/22 11:06:32;;;;;;;17.70;9.33;;;-2.20;99.90;;;;;;5115200;28;20426;-90
2021/12/22 11:09:13;;;;;;;18.77;7.37;;;-2.20;99.90;;;;;;5116049;28;20506;-88
2021/12/22 11:11:57;;;;;;;16.63;8.77;;;-2.10;99.90;;;;;;5119040;28;20502;-91
2021/12/22 11:14:23;;;;;;;15.97;9.30;;;-2.10;99.90;;;;;;5116127;28;20417;-88
2021/12/22 11:16:50;;;;;;;15.17;10.07;;;-2.10;99.90;;;;;;5115704;28;20498;-88
2021/12/22 11:19:16;;;;;;;17.30;9.50;;;-2.10;99.90;;;;;;5114576;28;20485;-88
2021/12/22 11:22:23;;;;;;;14.77;8.17;;;-2.00;99.90;;;;;;5113968;28;20837;-89
2021/12/22 11:24:54;;;;;;;18.63;9.50;;;-1.80;99.90;;;;;;5087987;28;20648;-88
2021/12/22 11:27:27;;;;;;;14.70;7.20;;;-1.90;99.90;;;;;;5107955;28;20431;-89
2021/12/22 11:29:58;;;;;;;18.10;10.67;;;-2.00;99.90;;;;;;5130098;27;20507;-87
2021/12/22 11:32:27;;;;;;;12.57;6.00;;;-2.00;99.90;;;;;;5119259;28;20412;-89
2021/12/22 11:34:56;;;;;;;15.43;7.43;;;-1.90;99.90;;;;;;5117102;27;20470;-89
2021/12/22 11:37:23;;;;;;;12.53;7.03;;;-2.00;99.90;;;;;;5114343;28;20424;-89
2021/12/22 11:39:49;;;;;;;15.40;7.53;;;-1.90;99.90;;;;;;5114010;28;20507;-90
2021/12/22 11:42:16;;;;;;;14.43;8.53;;;-2.00;99.90;;;;;;5114461;28;20468;-88
2021/12/22 11:44:50;;;;;;;15.40;7.63;;;-2.00;99.90;;;;;;5099918;28;20452;-88
2021/12/22 11:47:16;;;;;;;17.50;8.07;;;-2.10;99.90;;;;;;5094254;28;20923;-88
2021/12/22 11:49:49;;;;;;;16.17;8.23;;;-2.00;99.90;;;;;;5092197;28;20438;-86
2021/12/22 11:52:30;;;;;;;14.03;8.07;;;-2.00;99.90;;;;;;5093690;28;20422;-88
2021/12/22 11:55:08;;;;;;;19.63;7.40;;;-2.00;99.90;;;;;;5112406;28;20416;-88
2021/12/22 11:57:33;;;;;;;15.33;8.70;;;-1.90;99.90;;;;;;5111118;28;20416;-88
2021/12/22 12:00:31;;;;;;;20.70;9.30;;;-1.80;99.90;;;;;;5112964;28;20479;-87
2021/12/22 12:02:59;;;;;;;15.30;8.03;;;-1.70;99.90;;;;;;5092810;28;20507;-88
2021/12/22 12:05:29;;;;;;;12.07;7.10;;;-1.80;99.90;;;;;;5093411;28;20847;-86
2021/12/22 12:08:01;;;;;;;15.47;7.30;;;-1.80;99.90;;;;;;5092883;28;20815;-86
2021/12/22 12:11:00;;;;;;;18.23;9.63;;;-1.80;99.90;;;;;;5093272;28;20826;-86
2021/12/22 12:13:34;;;;;;;20.27;8.50;;;-1.60;99.90;;;;;;5059246;28;20414;-86
2021/12/22 12:22:05;;;;;;;17.80;10.13;;;-1.70;99.90;;;;;;5092719;28;20504;-86
2021/12/22 12:24:31;;;;;;;11.23;6.40;;;-1.50;99.90;;;;;;5101759;28;20428;-85
2021/12/22 12:27:01;;;;;;;19.70;10.27;;;-1.40;99.90;;;;;;5092080;28;20473;-88
2021/12/22 12:29:53;;;;;;;15.03;8.37;;;-1.30;99.90;;;;;;5093483;28;20172;-88
2021/12/22 12:32:40;;;;;;;16.33;8.60;;;-1.50;99.90;;;;;;5091322;28;20398;-87
2021/12/22 12:35:17;;;;;;;18.77;7.60;;;-1.60;99.90;;;;;;5090464;28;20783;-87
2021/12/22 12:38:15;;;;;;;17.97;9.63;;;-1.60;99.90;;;;;;5099550;28;20980;-82
2021/12/22 12:40:59;;;;;;;16.40;8.77;;;-1.60;99.90;;;;;;5089575;28;20826;-82
2021/12/22 12:43:56;;;;;;;14.23;7.80;;;-1.60;99.90;;;;;;5089926;28;20451;-81
2021/12/22 12:46:25;;;;;;;16.90;8.87;;;-1.50;99.90;;;;;;5087052;28;20419;-81
2021/12/22 12:49:06;;;;;;;13.20;8.00;;;-1.60;99.90;;;;;;5090605;28;20408;-82
2021/12/22 12:51:42;;;;;;;12.30;8.10;;;-1.60;99.90;;;;;;5090720;28;20408;-81
2021/12/22 12:54:25;;;;;;;19.10;10.33;;;-1.70;99.90;;;;;;5090878;28;20420;-82
2021/12/22 12:56:54;;;;;;;11.67;6.57;;;-1.80;99.90;;;;;;5090739;28;20779;-82
2021/12/22 12:59:27;;;;;;;18.03;10.23;;;-1.70;99.90;;;;;;5079749;28;20478;-82
2021/12/22 13:01:52;;;;;;;14.77;7.80;;;-1.80;99.90;;;;;;5090467;28;20426;-82
2021/12/22 13:04:27;;;;;;;17.30;8.50;;;-1.80;99.90;;;;;;5092942;28;20418;-83
2021/12/22 13:07:13;;;;;;;14.50;7.67;;;-1.80;99.90;;;;;;5076004;28;20168;-83
2021/12/22 13:09:41;;;;;;;19.27;9.63;;;-1.80;99.90;;;;;;5071564;28;20410;-82
2021/12/22 13:12:34;;;;;;;16.03;8.67;;;-1.80;99.90;;;;;;5075911;28;20970;-87
2021/12/22 13:17:51;;;;;;;19.37;10.97;;;-1.70;99.90;;;;;;5090295;28;20409;-85
2021/12/22 13:20:20;;;;;;;14.97;10.17;;;-1.60;99.90;;;;;;5087330;28;20475;-86